sensor_id;sensor_type;location;lat;lon;timestamp;P1;durP1;ratioP1;P2;durP2;ratioP2
74523;SDS011;63074;44.696;10.358;2023-05-07T00:00:59;9.32;;;6.15;;
74523;SDS011;63074;44.696;10.358;2023-05-07T00:03:25;7.97;;;6.00;;
74523;SDS011;63074;44.696;10.358;2023-05-07T00:05:52;10.07;;;7.18;;
74523;SDS011;63074;44.696;10.358;2023-05-07T00:08:18;7.35;;;5.90;;
74523;SDS011;63074;44.696;10.358;2023-05-07T00:10:45;9.00;;;6.10;;
74523;SDS011;63074;44.696;10.358;2023-05-07T00:13:11;7.45;;;5.80;;
74523;SDS011;63074;44.696;10.358;2023-05-07T00:15:38;8.13;;;5.88;;
74523;SDS011;63074;44.696;10.358;2023-05-07T00:18:04;7.88;;;6.40;;
74523;SDS011;63074;44.696;10.358;2023-05-07T00:20:30;7.35;;;6.55;;
74523;SDS011;63074;44.696;10.358;2023-05-07T00:22:56;7.25;;;5.88;;
74523;SDS011;63074;44.696;10.358;2023-05-07T00:25:22;7.97;;;6.40;;
74523;SDS011;63074;44.696;10.358;2023-05-07T00:27:49;8.32;;;6.63;;
74523;SDS011;63074;44.696;10.358;2023-05-07T00:30:15;10.07;;;6.43;;
74523;SDS011;63074;44.696;10.358;2023-05-07T00:32:41;7.95;;;6.45;;
74523;SDS011;63074;44.696;10.358;2023-05-07T00:35:10;8.48;;;6.55;;
74523;SDS011;63074;44.696;10.358;2023-05-07T00:37:36;8.20;;;6.53;;
74523;SDS011;63074;44.696;10.358;2023-05-07T00:40:02;8.80;;;6.28;;
74523;SDS011;63074;44.696;10.358;2023-05-07T00:44:58;7.07;;;5.65;;
74523;SDS011;63074;44.696;10.358;2023-05-07T00:47:24;8.25;;;5.97;;
74523;SDS011;63074;44.696;10.358;2023-05-07T00:49:51;8.18;;;6.63;;
74523;SDS011;63074;44.696;10.358;2023-05-07T00:52:17;8.90;;;5.85;;
74523;SDS011;63074;44.696;10.358;2023-05-07T00:54:46;9.25;;;6.68;;
74523;SDS011;63074;44.696;10.358;2023-05-07T00:57:13;9.77;;;6.63;;
74523;SDS011;63074;44.696;10.358;2023-05-07T00:59:39;11.18;;;7.10;;
74523;SDS011;63074;44.696;10.358;2023-05-07T01:02:06;10.30;;;7.07;;
74523;SDS011;63074;44.696;10.358;2023-05-07T01:04:33;9.57;;;7.93;;
74523;SDS011;63074;44.696;10.358;2023-05-07T01:06:59;10.60;;;7.28;;
74523;SDS011;63074;44.696;10.358;2023-05-07T01:09:28;8.68;;;7.15;;
74523;SDS011;63074;44.696;10.358;2023-05-07T01:11:55;9.85;;;6.72;;
74523;SDS011;63074;44.696;10.358;2023-05-07T01:14:23;9.77;;;7.60;;
74523;SDS011;63074;44.696;10.358;2023-05-07T01:16:50;11.00;;;7.20;;
74523;SDS011;63074;44.696;10.358;2023-05-07T01:19:17;12.65;;;7.85;;
74523;SDS011;63074;44.696;10.358;2023-05-07T01:21:46;8.70;;;7.22;;
74523;SDS011;63074;44.696;10.358;2023-05-07T01:24:13;12.75;;;8.32;;
74523;SDS011;63074;44.696;10.358;2023-05-07T01:26:40;10.82;;;7.63;;
74523;SDS011;63074;44.696;10.358;2023-05-07T01:29:07;12.27;;;8.15;;
74523;SDS011;63074;44.696;10.358;2023-05-07T01:31:34;12.43;;;8.90;;
74523;SDS011;63074;44.696;10.358;2023-05-07T01:34:01;10.95;;;8.63;;
74523;SDS011;63074;44.696;10.358;2023-05-07T01:36:28;11.45;;;8.10;;
74523;SDS011;63074;44.696;10.358;2023-05-07T01:38:56;9.10;;;7.90;;
74523;SDS011;63074;44.696;10.358;2023-05-07T01:41:23;9.95;;;7.47;;
74523;SDS011;63074;44.696;10.358;2023-05-07T01:43:50;11.40;;;9.15;;
74523;SDS011;63074;44.696;10.358;2023-05-07T01:46:18;10.20;;;8.43;;
74523;SDS011;63074;44.696;10.358;2023-05-07T01:48:45;9.50;;;7.72;;
74523;SDS011;63074;44.696;10.358;2023-05-07T01:51:11;10.35;;;7.25;;
74523;SDS011;63074;44.696;10.358;2023-05-07T01:53:38;8.77;;;7.10;;
74523;SDS011;63074;44.696;10.358;2023-05-07T01:56:10;8.50;;;7.60;;
74523;SDS011;63074;44.696;10.358;2023-05-07T01:58:36;9.27;;;7.40;;
74523;SDS011;63074;44.696;10.358;2023-05-07T02:01:03;11.00;;;9.32;;
74523;SDS011;63074;44.696;10.358;2023-05-07T02:03:29;14.88;;;10.57;;
74523;SDS011;63074;44.696;10.358;2023-05-07T02:05:55;15.82;;;10.18;;
74523;SDS011;63074;44.696;10.358;2023-05-07T02:08:21;18.58;;;12.75;;
74523;SDS011;63074;44.696;10.358;2023-05-07T02:10:47;15.02;;;10.55;;
74523;SDS011;63074;44.696;10.358;2023-05-07T02:13:15;15.02;;;10.95;;
74523;SDS011;63074;44.696;10.358;2023-05-07T02:15:41;14.70;;;9.60;;
74523;SDS011;63074;44.696;10.358;2023-05-07T02:18:07;14.85;;;9.77;;
74523;SDS011;63074;44.696;10.358;2023-05-07T02:20:34;11.82;;;9.07;;
74523;SDS011;63074;44.696;10.358;2023-05-07T02:23:00;11.38;;;9.05;;
74523;SDS011;63074;44.696;10.358;2023-05-07T02:25:27;11.15;;;8.32;;
74523;SDS011;63074;44.696;10.358;2023-05-07T02:27:54;11.75;;;8.27;;
74523;SDS011;63074;44.696;10.358;2023-05-07T02:30:20;11.27;;;9.15;;
74523;SDS011;63074;44.696;10.358;2023-05-07T02:32:46;9.30;;;7.45;;
74523;SDS011;63074;44.696;10.358;2023-05-07T02:35:13;10.43;;;7.72;;
74523;SDS011;63074;44.696;10.358;2023-05-07T02:37:39;8.98;;;7.15;;
74523;SDS011;63074;44.696;10.358;2023-05-07T02:40:06;7.82;;;6.53;;
74523;SDS011;63074;44.696;10.358;2023-05-07T02:42:32;7.03;;;5.63;;
74523;SDS011;63074;44.696;10.358;2023-05-07T02:44:59;8.63;;;5.70;;
74523;SDS011;63074;44.696;10.358;2023-05-07T02:47:25;6.25;;;5.10;;
74523;SDS011;63074;44.696;10.358;2023-05-07T02:52:21;11.57;;;5.60;;
74523;SDS011;63074;44.696;10.358;2023-05-07T02:54:47;7.20;;;5.53;;
74523;SDS011;63074;44.696;10.358;2023-05-07T02:57:13;7.15;;;5.55;;
74523;SDS011;63074;44.696;10.358;2023-05-07T02:59:39;7.22;;;6.18;;
74523;SDS011;63074;44.696;10.358;2023-05-07T03:02:06;8.18;;;6.00;;
74523;SDS011;63074;44.696;10.358;2023-05-07T03:04:32;10.15;;;7.28;;
74523;SDS011;63074;44.696;10.358;2023-05-07T03:06:58;8.85;;;6.97;;
74523;SDS011;63074;44.696;10.358;2023-05-07T03:09:25;9.55;;;7.38;;
74523;SDS011;63074;44.696;10.358;2023-05-07T03:11:51;8.38;;;6.85;;
74523;SDS011;63074;44.696;10.358;2023-05-07T03:14:17;8.43;;;6.80;;
74523;SDS011;63074;44.696;10.358;2023-05-07T03:16:43;8.10;;;6.57;;
74523;SDS011;63074;44.696;10.358;2023-05-07T03:19:09;7.63;;;6.80;;
74523;SDS011;63074;44.696;10.358;2023-05-07T03:21:36;8.63;;;7.43;;
74523;SDS011;63074;44.696;10.358;2023-05-07T03:24:02;9.32;;;7.40;;
74523;SDS011;63074;44.696;10.358;2023-05-07T03:26:28;8.50;;;6.53;;
74523;SDS011;63074;44.696;10.358;2023-05-07T03:28:54;6.85;;;6.15;;
74523;SDS011;63074;44.696;10.358;2023-05-07T03:31:20;8.15;;;6.65;;
74523;SDS011;63074;44.696;10.358;2023-05-07T03:33:54;7.93;;;6.47;;
74523;SDS011;63074;44.696;10.358;2023-05-07T03:36:21;7.80;;;6.40;;
74523;SDS011;63074;44.696;10.358;2023-05-07T03:38:48;7.65;;;6.15;;
74523;SDS011;63074;44.696;10.358;2023-05-07T03:41:15;8.32;;;6.13;;
74523;SDS011;63074;44.696;10.358;2023-05-07T03:43:41;7.68;;;6.18;;
74523;SDS011;63074;44.696;10.358;2023-05-07T03:46:07;7.75;;;5.78;;
74523;SDS011;63074;44.696;10.358;2023-05-07T03:48:33;7.75;;;6.68;;
74523;SDS011;63074;44.696;10.358;2023-05-07T03:51:00;7.47;;;5.38;;
74523;SDS011;63074;44.696;10.358;2023-05-07T03:53:26;7.68;;;6.00;;
74523;SDS011;63074;44.696;10.358;2023-05-07T03:55:52;6.70;;;5.70;;
74523;SDS011;63074;44.696;10.358;2023-05-07T03:58:18;7.45;;;5.65;;
74523;SDS011;63074;44.696;10.358;2023-05-07T04:00:45;6.43;;;5.25;;
74523;SDS011;63074;44.696;10.358;2023-05-07T04:03:11;8.23;;;6.05;;
74523;SDS011;63074;44.696;10.358;2023-05-07T04:05:37;7.82;;;6.53;;
74523;SDS011;63074;44.696;10.358;2023-05-07T04:08:03;6.95;;;6.00;;
74523;SDS011;63074;44.696;10.358;2023-05-07T04:10:30;9.10;;;6.10;;
74523;SDS011;63074;44.696;10.358;2023-05-07T04:12:56;8.27;;;5.45;;
74523;SDS011;63074;44.696;10.358;2023-05-07T04:15:23;9.05;;;6.40;;
74523;SDS011;63074;44.696;10.358;2023-05-07T04:17:49;6.22;;;5.50;;
74523;SDS011;63074;44.696;10.358;2023-05-07T04:20:16;9.98;;;6.35;;
74523;SDS011;63074;44.696;10.358;2023-05-07T04:22:42;7.03;;;5.45;;
74523;SDS011;63074;44.696;10.358;2023-05-07T04:25:09;6.70;;;5.32;;
74523;SDS011;63074;44.696;10.358;2023-05-07T04:27:35;6.82;;;5.03;;
74523;SDS011;63074;44.696;10.358;2023-05-07T04:30:02;6.88;;;5.60;;
74523;SDS011;63074;44.696;10.358;2023-05-07T04:32:29;7.13;;;5.43;;
74523;SDS011;63074;44.696;10.358;2023-05-07T04:34:56;6.57;;;5.03;;
74523;SDS011;63074;44.696;10.358;2023-05-07T04:37:22;7.22;;;6.38;;
74523;SDS011;63074;44.696;10.358;2023-05-07T04:39:50;7.35;;;5.95;;
74523;SDS011;63074;44.696;10.358;2023-05-07T04:42:16;7.35;;;5.75;;
74523;SDS011;63074;44.696;10.358;2023-05-07T04:44:44;9.13;;;6.40;;
74523;SDS011;63074;44.696;10.358;2023-05-07T04:47:11;7.15;;;5.85;;
74523;SDS011;63074;44.696;10.358;2023-05-07T04:49:37;6.28;;;5.55;;
74523;SDS011;63074;44.696;10.358;2023-05-07T04:52:04;7.28;;;5.68;;
74523;SDS011;63074;44.696;10.358;2023-05-07T04:54:30;7.60;;;6.15;;
74523;SDS011;63074;44.696;10.358;2023-05-07T04:56:56;6.32;;;5.60;;
74523;SDS011;63074;44.696;10.358;2023-05-07T04:59:23;5.97;;;5.07;;
74523;SDS011;63074;44.696;10.358;2023-05-07T05:01:49;7.85;;;6.43;;
74523;SDS011;63074;44.696;10.358;2023-05-07T05:04:15;6.97;;;6.05;;
74523;SDS011;63074;44.696;10.358;2023-05-07T05:06:41;7.60;;;5.88;;
74523;SDS011;63074;44.696;10.358;2023-05-07T05:09:07;7.70;;;6.10;;
74523;SDS011;63074;44.696;10.358;2023-05-07T05:11:34;8.80;;;7.07;;
74523;SDS011;63074;44.696;10.358;2023-05-07T05:14:00;6.20;;;4.88;;
74523;SDS011;63074;44.696;10.358;2023-05-07T05:16:27;7.43;;;5.30;;
74523;SDS011;63074;44.696;10.358;2023-05-07T05:18:53;9.45;;;5.65;;
74523;SDS011;63074;44.696;10.358;2023-05-07T05:21:20;7.28;;;5.20;;
74523;SDS011;63074;44.696;10.358;2023-05-07T05:23:46;7.32;;;5.40;;
74523;SDS011;63074;44.696;10.358;2023-05-07T05:26:12;6.88;;;5.10;;
74523;SDS011;63074;44.696;10.358;2023-05-07T05:28:38;6.07;;;4.97;;
74523;SDS011;63074;44.696;10.358;2023-05-07T05:31:05;6.82;;;5.20;;
74523;SDS011;63074;44.696;10.358;2023-05-07T05:33:31;5.85;;;5.18;;
74523;SDS011;63074;44.696;10.358;2023-05-07T05:35:57;7.15;;;4.88;;
74523;SDS011;63074;44.696;10.358;2023-05-07T05:38:23;6.35;;;4.47;;
74523;SDS011;63074;44.696;10.358;2023-05-07T05:40:50;5.72;;;4.85;;
74523;SDS011;63074;44.696;10.358;2023-05-07T05:43:16;8.40;;;4.10;;
74523;SDS011;63074;44.696;10.358;2023-05-07T05:45:43;5.35;;;4.22;;
74523;SDS011;63074;44.696;10.358;2023-05-07T05:48:09;6.63;;;4.45;;
74523;SDS011;63074;44.696;10.358;2023-05-07T05:50:35;6.18;;;4.65;;
74523;SDS011;63074;44.696;10.358;2023-05-07T05:53:01;5.85;;;4.32;;
74523;SDS011;63074;44.696;10.358;2023-05-07T05:55:28;4.75;;;4.25;;
74523;SDS011;63074;44.696;10.358;2023-05-07T05:57:54;5.55;;;4.68;;
74523;SDS011;63074;44.696;10.358;2023-05-07T06:00:22;4.93;;;4.38;;
74523;SDS011;63074;44.696;10.358;2023-05-07T06:02:48;6.38;;;4.90;;
74523;SDS011;63074;44.696;10.358;2023-05-07T06:05:14;5.70;;;3.95;;
74523;SDS011;63074;44.696;10.358;2023-05-07T06:07:41;5.13;;;4.22;;
74523;SDS011;63074;44.696;10.358;2023-05-07T06:10:07;6.60;;;4.65;;
74523;SDS011;63074;44.696;10.358;2023-05-07T06:12:33;4.93;;;3.63;;
74523;SDS011;63074;44.696;10.358;2023-05-07T06:14:59;4.68;;;4.03;;
74523;SDS011;63074;44.696;10.358;2023-05-07T06:17:26;6.00;;;4.07;;
74523;SDS011;63074;44.696;10.358;2023-05-07T06:19:52;5.57;;;3.80;;
74523;SDS011;63074;44.696;10.358;2023-05-07T06:22:19;4.90;;;4.13;;
74523;SDS011;63074;44.696;10.358;2023-05-07T06:24:45;4.18;;;3.67;;
74523;SDS011;63074;44.696;10.358;2023-05-07T06:27:12;5.97;;;4.35;;
74523;SDS011;63074;44.696;10.358;2023-05-07T06:29:38;5.53;;;4.55;;
74523;SDS011;63074;44.696;10.358;2023-05-07T06:32:11;5.32;;;4.00;;
74523;SDS011;63074;44.696;10.358;2023-05-07T06:34:39;4.32;;;3.47;;
74523;SDS011;63074;44.696;10.358;2023-05-07T06:37:06;3.47;;;3.10;;
74523;SDS011;63074;44.696;10.358;2023-05-07T06:39:33;4.85;;;3.85;;
74523;SDS011;63074;44.696;10.358;2023-05-07T06:42:02;4.28;;;3.75;;
74523;SDS011;63074;44.696;10.358;2023-05-07T06:44:29;4.03;;;3.55;;
74523;SDS011;63074;44.696;10.358;2023-05-07T06:46:56;4.68;;;3.20;;
74523;SDS011;63074;44.696;10.358;2023-05-07T06:49:22;4.70;;;3.80;;
74523;SDS011;63074;44.696;10.358;2023-05-07T06:51:49;4.50;;;3.40;;
74523;SDS011;63074;44.696;10.358;2023-05-07T06:54:20;4.88;;;3.25;;
74523;SDS011;63074;44.696;10.358;2023-05-07T06:56:47;4.82;;;3.45;;
74523;SDS011;63074;44.696;10.358;2023-05-07T06:59:13;14.20;;;4.57;;
74523;SDS011;63074;44.696;10.358;2023-05-07T07:01:40;5.45;;;3.40;;
74523;SDS011;63074;44.696;10.358;2023-05-07T07:04:06;4.35;;;3.35;;
74523;SDS011;63074;44.696;10.358;2023-05-07T07:06:32;6.10;;;3.70;;
74523;SDS011;63074;44.696;10.358;2023-05-07T07:08:59;7.50;;;5.40;;
74523;SDS011;63074;44.696;10.358;2023-05-07T07:11:25;6.60;;;5.05;;
74523;SDS011;63074;44.696;10.358;2023-05-07T07:13:51;19.90;;;6.30;;
74523;SDS011;63074;44.696;10.358;2023-05-07T07:16:19;10.50;;;5.30;;
74523;SDS011;63074;44.696;10.358;2023-05-07T07:18:46;9.65;;;6.82;;
74523;SDS011;63074;44.696;10.358;2023-05-07T07:21:12;8.48;;;6.68;;
74523;SDS011;63074;44.696;10.358;2023-05-07T07:23:39;10.43;;;7.43;;
74523;SDS011;63074;44.696;10.358;2023-05-07T07:26:05;10.65;;;7.10;;
74523;SDS011;63074;44.696;10.358;2023-05-07T07:28:31;10.20;;;6.88;;
74523;SDS011;63074;44.696;10.358;2023-05-07T07:30:58;11.15;;;7.88;;
74523;SDS011;63074;44.696;10.358;2023-05-07T07:33:24;12.20;;;8.05;;
74523;SDS011;63074;44.696;10.358;2023-05-07T07:35:50;11.15;;;8.20;;
74523;SDS011;63074;44.696;10.358;2023-05-07T07:38:16;11.40;;;8.02;;
74523;SDS011;63074;44.696;10.358;2023-05-07T07:40:42;11.32;;;8.75;;
74523;SDS011;63074;44.696;10.358;2023-05-07T07:43:09;11.48;;;8.45;;
74523;SDS011;63074;44.696;10.358;2023-05-07T07:45:35;14.18;;;9.20;;
74523;SDS011;63074;44.696;10.358;2023-05-07T07:48:01;13.00;;;9.52;;
74523;SDS011;63074;44.696;10.358;2023-05-07T07:50:27;13.13;;;9.60;;
74523;SDS011;63074;44.696;10.358;2023-05-07T07:52:53;11.65;;;8.48;;
74523;SDS011;63074;44.696;10.358;2023-05-07T07:55:20;11.70;;;8.70;;
74523;SDS011;63074;44.696;10.358;2023-05-07T07:57:48;10.88;;;7.90;;
74523;SDS011;63074;44.696;10.358;2023-05-07T08:00:15;15.80;;;10.27;;
74523;SDS011;63074;44.696;10.358;2023-05-07T08:02:42;13.68;;;9.60;;
74523;SDS011;63074;44.696;10.358;2023-05-07T08:05:08;12.73;;;8.55;;
74523;SDS011;63074;44.696;10.358;2023-05-07T08:07:35;12.00;;;8.80;;
74523;SDS011;63074;44.696;10.358;2023-05-07T08:10:02;10.88;;;8.90;;
74523;SDS011;63074;44.696;10.358;2023-05-07T08:12:28;14.15;;;8.98;;
74523;SDS011;63074;44.696;10.358;2023-05-07T08:14:55;14.70;;;9.05;;
74523;SDS011;63074;44.696;10.358;2023-05-07T08:17:21;14.00;;;9.93;;
74523;SDS011;63074;44.696;10.358;2023-05-07T08:19:48;14.15;;;9.88;;
74523;SDS011;63074;44.696;10.358;2023-05-07T08:22:14;14.75;;;9.65;;
74523;SDS011;63074;44.696;10.358;2023-05-07T08:24:40;13.70;;;9.90;;
74523;SDS011;63074;44.696;10.358;2023-05-07T08:27:06;14.05;;;10.30;;
74523;SDS011;63074;44.696;10.358;2023-05-07T08:29:33;13.85;;;9.38;;
74523;SDS011;63074;44.696;10.358;2023-05-07T08:31:59;12.65;;;9.05;;
74523;SDS011;63074;44.696;10.358;2023-05-07T08:34:25;12.05;;;9.52;;
74523;SDS011;63074;44.696;10.358;2023-05-07T08:36:51;14.48;;;10.73;;
74523;SDS011;63074;44.696;10.358;2023-05-07T08:39:18;14.27;;;9.90;;
74523;SDS011;63074;44.696;10.358;2023-05-07T08:41:44;14.35;;;9.15;;
74523;SDS011;63074;44.696;10.358;2023-05-07T08:44:12;15.73;;;10.55;;
74523;SDS011;63074;44.696;10.358;2023-05-07T08:46:41;13.52;;;9.57;;
74523;SDS011;63074;44.696;10.358;2023-05-07T08:49:11;15.73;;;9.95;;
74523;SDS011;63074;44.696;10.358;2023-05-07T08:51:37;14.52;;;9.85;;
74523;SDS011;63074;44.696;10.358;2023-05-07T08:54:04;13.05;;;9.73;;
74523;SDS011;63074;44.696;10.358;2023-05-07T08:56:32;13.57;;;9.38;;
74523;SDS011;63074;44.696;10.358;2023-05-07T08:58:58;10.90;;;8.27;;
74523;SDS011;63074;44.696;10.358;2023-05-07T09:01:24;14.95;;;10.30;;
74523;SDS011;63074;44.696;10.358;2023-05-07T09:03:51;15.27;;;10.15;;
74523;SDS011;63074;44.696;10.358;2023-05-07T09:06:18;14.13;;;10.23;;
74523;SDS011;63074;44.696;10.358;2023-05-07T09:08:51;13.20;;;9.95;;
74523;SDS011;63074;44.696;10.358;2023-05-07T09:11:22;13.55;;;9.07;;
74523;SDS011;63074;44.696;10.358;2023-05-07T09:13:49;12.75;;;9.27;;
74523;SDS011;63074;44.696;10.358;2023-05-07T09:16:20;11.52;;;8.43;;
74523;SDS011;63074;44.696;10.358;2023-05-07T09:18:48;12.15;;;9.32;;
74523;SDS011;63074;44.696;10.358;2023-05-07T09:21:18;11.05;;;9.02;;
74523;SDS011;63074;44.696;10.358;2023-05-07T09:23:45;13.30;;;8.85;;
74523;SDS011;63074;44.696;10.358;2023-05-07T09:26:12;9.98;;;8.27;;
74523;SDS011;63074;44.696;10.358;2023-05-07T09:28:40;12.35;;;10.05;;
74523;SDS011;63074;44.696;10.358;2023-05-07T09:31:10;11.45;;;8.25;;
74523;SDS011;63074;44.696;10.358;2023-05-07T09:33:37;9.45;;;7.45;;
74523;SDS011;63074;44.696;10.358;2023-05-07T09:36:05;10.82;;;8.15;;
74523;SDS011;63074;44.696;10.358;2023-05-07T09:38:32;11.82;;;7.70;;
74523;SDS011;63074;44.696;10.358;2023-05-07T09:41:17;11.70;;;8.88;;
74523;SDS011;63074;44.696;10.358;2023-05-07T09:43:43;12.00;;;8.45;;
74523;SDS011;63074;44.696;10.358;2023-05-07T09:46:13;12.57;;;9.23;;
74523;SDS011;63074;44.696;10.358;2023-05-07T09:48:42;9.10;;;7.30;;
74523;SDS011;63074;44.696;10.358;2023-05-07T09:53:56;9.65;;;7.45;;
74523;SDS011;63074;44.696;10.358;2023-05-07T09:56:25;10.18;;;7.65;;
74523;SDS011;63074;44.696;10.358;2023-05-07T09:58:52;12.13;;;9.05;;
74523;SDS011;63074;44.696;10.358;2023-05-07T10:01:21;8.25;;;6.88;;
74523;SDS011;63074;44.696;10.358;2023-05-07T10:03:49;10.00;;;7.28;;
74523;SDS011;63074;44.696;10.358;2023-05-07T10:06:16;9.18;;;7.25;;
74523;SDS011;63074;44.696;10.358;2023-05-07T10:08:44;8.85;;;6.97;;
74523;SDS011;63074;44.696;10.358;2023-05-07T10:11:11;9.70;;;6.80;;
74523;SDS011;63074;44.696;10.358;2023-05-07T10:13:37;7.28;;;5.35;;
74523;SDS011;63074;44.696;10.358;2023-05-07T10:16:04;8.18;;;5.80;;
74523;SDS011;63074;44.696;10.358;2023-05-07T10:18:31;7.88;;;6.60;;
74523;SDS011;63074;44.696;10.358;2023-05-07T10:21:07;8.45;;;6.82;;
74523;SDS011;63074;44.696;10.358;2023-05-07T10:23:40;8.65;;;7.55;;
74523;SDS011;63074;44.696;10.358;2023-05-07T10:26:10;6.70;;;6.00;;
74523;SDS011;63074;44.696;10.358;2023-05-07T10:28:38;7.88;;;6.47;;
74523;SDS011;63074;44.696;10.358;2023-05-07T10:33:40;7.15;;;5.63;;
74523;SDS011;63074;44.696;10.358;2023-05-07T10:36:10;7.72;;;5.65;;
74523;SDS011;63074;44.696;10.358;2023-05-07T10:38:38;7.55;;;5.97;;
74523;SDS011;63074;44.696;10.358;2023-05-07T10:41:05;7.68;;;5.78;;
74523;SDS011;63074;44.696;10.358;2023-05-07T10:43:41;11.20;;;6.57;;
74523;SDS011;63074;44.696;10.358;2023-05-07T10:46:16;9.55;;;6.30;;
74523;SDS011;63074;44.696;10.358;2023-05-07T10:51:28;7.15;;;6.35;;
74523;SDS011;63074;44.696;10.358;2023-05-07T10:56:39;7.25;;;6.30;;
74523;SDS011;63074;44.696;10.358;2023-05-07T11:01:52;8.25;;;5.72;;
74523;SDS011;63074;44.696;10.358;2023-05-07T11:04:19;10.05;;;5.78;;
74523;SDS011;63074;44.696;10.358;2023-05-07T11:15:09;6.47;;;5.88;;
74523;SDS011;63074;44.696;10.358;2023-05-07T11:17:52;11.20;;;6.90;;
74523;SDS011;63074;44.696;10.358;2023-05-07T11:20:20;9.85;;;6.72;;
74523;SDS011;63074;44.696;10.358;2023-05-07T11:23:08;6.97;;;5.70;;
74523;SDS011;63074;44.696;10.358;2023-05-07T11:26:05;6.35;;;5.53;;
74523;SDS011;63074;44.696;10.358;2023-05-07T11:28:35;7.28;;;5.25;;
74523;SDS011;63074;44.696;10.358;2023-05-07T11:31:06;7.18;;;5.20;;
74523;SDS011;63074;44.696;10.358;2023-05-07T11:33:33;5.90;;;5.32;;
74523;SDS011;63074;44.696;10.358;2023-05-07T11:36:01;6.82;;;5.28;;
74523;SDS011;63074;44.696;10.358;2023-05-07T11:38:28;8.18;;;5.82;;
74523;SDS011;63074;44.696;10.358;2023-05-07T11:40:59;6.38;;;4.90;;
74523;SDS011;63074;44.696;10.358;2023-05-07T11:43:26;5.57;;;5.00;;
74523;SDS011;63074;44.696;10.358;2023-05-07T11:45:53;8.60;;;5.78;;
74523;SDS011;63074;44.696;10.358;2023-05-07T11:48:21;6.53;;;5.30;;
74523;SDS011;63074;44.696;10.358;2023-05-07T11:50:51;6.35;;;4.88;;
74523;SDS011;63074;44.696;10.358;2023-05-07T11:53:26;8.10;;;5.85;;
74523;SDS011;63074;44.696;10.358;2023-05-07T11:56:00;6.82;;;5.68;;
74523;SDS011;63074;44.696;10.358;2023-05-07T11:58:30;9.98;;;6.97;;
74523;SDS011;63074;44.696;10.358;2023-05-07T12:00:57;10.40;;;7.60;;
74523;SDS011;63074;44.696;10.358;2023-05-07T12:03:23;9.27;;;6.13;;
74523;SDS011;63074;44.696;10.358;2023-05-07T12:05:49;7.43;;;6.25;;
74523;SDS011;63074;44.696;10.358;2023-05-07T12:08:16;9.00;;;7.32;;
74523;SDS011;63074;44.696;10.358;2023-05-07T12:10:43;10.13;;;7.70;;
74523;SDS011;63074;44.696;10.358;2023-05-07T12:13:19;12.90;;;8.75;;
74523;SDS011;63074;44.696;10.358;2023-05-07T12:15:48;12.25;;;9.45;;
74523;SDS011;63074;44.696;10.358;2023-05-07T12:18:16;11.82;;;8.60;;
74523;SDS011;63074;44.696;10.358;2023-05-07T12:20:43;10.70;;;7.93;;
74523;SDS011;63074;44.696;10.358;2023-05-07T12:23:10;8.68;;;6.72;;
74523;SDS011;63074;44.696;10.358;2023-05-07T12:25:40;7.63;;;6.45;;
74523;SDS011;63074;44.696;10.358;2023-05-07T12:28:13;9.93;;;7.05;;
74523;SDS011;63074;44.696;10.358;2023-05-07T12:30:44;8.35;;;6.63;;
74523;SDS011;63074;44.696;10.358;2023-05-07T12:33:17;9.18;;;6.53;;
74523;SDS011;63074;44.696;10.358;2023-05-07T12:35:46;9.25;;;6.50;;
74523;SDS011;63074;44.696;10.358;2023-05-07T12:38:14;8.63;;;6.15;;
74523;SDS011;63074;44.696;10.358;2023-05-07T12:40:45;8.48;;;6.15;;
74523;SDS011;63074;44.696;10.358;2023-05-07T12:43:25;7.43;;;5.82;;
74523;SDS011;63074;44.696;10.358;2023-05-07T12:45:54;7.32;;;6.07;;
74523;SDS011;63074;44.696;10.358;2023-05-07T12:48:21;7.03;;;6.00;;
74523;SDS011;63074;44.696;10.358;2023-05-07T12:50:52;7.00;;;5.85;;
74523;SDS011;63074;44.696;10.358;2023-05-07T12:53:22;7.97;;;5.25;;
74523;SDS011;63074;44.696;10.358;2023-05-07T12:55:51;6.15;;;5.55;;
74523;SDS011;63074;44.696;10.358;2023-05-07T13:00:53;5.72;;;4.75;;
74523;SDS011;63074;44.696;10.358;2023-05-07T13:05:54;6.03;;;4.60;;
74523;SDS011;63074;44.696;10.358;2023-05-07T13:08:24;7.00;;;5.65;;
74523;SDS011;63074;44.696;10.358;2023-05-07T13:10:52;6.35;;;5.75;;
74523;SDS011;63074;44.696;10.358;2023-05-07T13:13:19;7.57;;;5.45;;
74523;SDS011;63074;44.696;10.358;2023-05-07T13:15:46;5.95;;;5.35;;
74523;SDS011;63074;44.696;10.358;2023-05-07T13:18:13;6.53;;;5.25;;
74523;SDS011;63074;44.696;10.358;2023-05-07T13:20:39;8.35;;;6.75;;
74523;SDS011;63074;44.696;10.358;2023-05-07T13:23:06;6.55;;;5.15;;
74523;SDS011;63074;44.696;10.358;2023-05-07T13:25:32;7.15;;;5.03;;
74523;SDS011;63074;44.696;10.358;2023-05-07T13:27:58;6.18;;;5.57;;
74523;SDS011;63074;44.696;10.358;2023-05-07T13:30:24;6.30;;;5.07;;
74523;SDS011;63074;44.696;10.358;2023-05-07T13:32:51;5.10;;;4.60;;
74523;SDS011;63074;44.696;10.358;2023-05-07T13:35:20;6.88;;;5.65;;
74523;SDS011;63074;44.696;10.358;2023-05-07T13:37:46;6.35;;;5.35;;
74523;SDS011;63074;44.696;10.358;2023-05-07T13:40:14;6.18;;;4.60;;
74523;SDS011;63074;44.696;10.358;2023-05-07T13:42:40;7.40;;;5.22;;
74523;SDS011;63074;44.696;10.358;2023-05-07T13:45:06;6.38;;;5.00;;
74523;SDS011;63074;44.696;10.358;2023-05-07T13:47:33;5.18;;;4.60;;
74523;SDS011;63074;44.696;10.358;2023-05-07T13:50:00;5.65;;;5.05;;
74523;SDS011;63074;44.696;10.358;2023-05-07T13:52:26;6.07;;;4.80;;
74523;SDS011;63074;44.696;10.358;2023-05-07T13:54:52;5.47;;;4.30;;
74523;SDS011;63074;44.696;10.358;2023-05-07T13:57:20;5.18;;;4.68;;
74523;SDS011;63074;44.696;10.358;2023-05-07T13:59:46;7.30;;;5.40;;
74523;SDS011;63074;44.696;10.358;2023-05-07T14:02:12;6.07;;;4.82;;
74523;SDS011;63074;44.696;10.358;2023-05-07T14:04:38;5.65;;;5.05;;
74523;SDS011;63074;44.696;10.358;2023-05-07T14:07:04;5.82;;;5.22;;
74523;SDS011;63074;44.696;10.358;2023-05-07T14:09:31;5.80;;;5.25;;
74523;SDS011;63074;44.696;10.358;2023-05-07T14:11:58;6.97;;;4.88;;
74523;SDS011;63074;44.696;10.358;2023-05-07T14:14:25;6.90;;;5.07;;
74523;SDS011;63074;44.696;10.358;2023-05-07T14:16:51;5.18;;;4.68;;
74523;SDS011;63074;44.696;10.358;2023-05-07T14:19:17;4.93;;;4.47;;
74523;SDS011;63074;44.696;10.358;2023-05-07T14:21:43;6.40;;;4.43;;
74523;SDS011;63074;44.696;10.358;2023-05-07T14:24:09;7.03;;;5.82;;
74523;SDS011;63074;44.696;10.358;2023-05-07T14:26:36;8.05;;;5.78;;
74523;SDS011;63074;44.696;10.358;2023-05-07T14:29:02;7.40;;;6.20;;
74523;SDS011;63074;44.696;10.358;2023-05-07T14:31:29;5.88;;;5.28;;
74523;SDS011;63074;44.696;10.358;2023-05-07T14:33:55;5.78;;;4.85;;
74523;SDS011;63074;44.696;10.358;2023-05-07T14:36:23;4.78;;;4.13;;
74523;SDS011;63074;44.696;10.358;2023-05-07T14:38:51;4.82;;;4.03;;
74523;SDS011;63074;44.696;10.358;2023-05-07T14:41:21;5.78;;;4.53;;
74523;SDS011;63074;44.696;10.358;2023-05-07T14:43:48;5.25;;;4.60;;
74523;SDS011;63074;44.696;10.358;2023-05-07T14:46:17;4.30;;;3.40;;
74523;SDS011;63074;44.696;10.358;2023-05-07T14:48:44;5.47;;;4.60;;
74523;SDS011;63074;44.696;10.358;2023-05-07T14:51:11;4.75;;;4.25;;
74523;SDS011;63074;44.696;10.358;2023-05-07T14:53:38;5.45;;;4.45;;
74523;SDS011;63074;44.696;10.358;2023-05-07T14:56:06;4.72;;;4.22;;
74523;SDS011;63074;44.696;10.358;2023-05-07T14:58:32;5.07;;;3.97;;
74523;SDS011;63074;44.696;10.358;2023-05-07T15:00:59;6.93;;;5.40;;
74523;SDS011;63074;44.696;10.358;2023-05-07T15:03:26;6.72;;;5.35;;